Time;durP1;ratioP1;P1;durP2;ratioP2;P2;SDS_P1;SDS_P2;PMS_P1;PMS_P2;Temp;Humidity;BMP_temperature;BMP_pressure;BME280_temperature;BME280_humidity;BME280_pressure;Samples;Min_cycle;Max_cycle;Signal;HPM_P1;HPM_P2
2023/02/08 00:00:48;;;;;;;56.07;25.77;;;;;;;-7.59;100.00;103265.22;5026068;28;20037;-75
2023/02/08 00:03:13;;;;;;;54.33;28.03;;;;;;;-7.60;100.00;103271.06;5023972;28;20044;-75
2023/02/08 00:05:38;;;;;;;51.57;26.73;;;;;;;-7.61;100.00;103259.91;5025332;28;20071;-76
2023/02/08 00:08:04;;;;;;;50.90;28.37;;;;;;;-7.58;100.00;103262.78;5022922;28;20029;-76
2023/02/08 00:10:30;;;;;;;47.33;23.30;;;;;;;-7.57;100.00;103250.88;5025324;28;20033;-76
2023/02/08 00:12:55;;;;;;;49.97;24.03;;;;;;;-7.60;100.00;103255.69;5026053;28;20030;-75
2023/02/08 00:15:21;;;;;;;52.77;24.97;;;;;;;-7.61;100.00;103262.47;5023224;28;20041;-75
2023/02/08 00:17:46;;;;;;;45.10;23.27;;;;;;;-7.65;100.00;103262.88;5029566;28;20044;-76
2023/02/08 00:20:12;;;;;;;53.00;25.93;;;;;;;-7.73;100.00;103263.66;5026301;28;20535;-75
2023/02/08 00:22:38;;;;;;;56.37;27.60;;;;;;;-7.77;100.00;103258.94;5021975;28;20083;-76
2023/02/08 00:25:04;;;;;;;65.73;30.73;;;;;;;-7.75;100.00;103260.94;5025712;28;20555;-76
2023/02/08 00:27:30;;;;;;;51.43;25.27;;;;;;;-7.79;100.00;103263.91;5025062;28;20037;-76
2023/02/08 00:29:55;;;;;;;51.50;25.53;;;;;;;-7.81;100.00;103264.47;5022230;28;20145;-75
2023/02/08 00:32:21;;;;;;;62.13;26.97;;;;;;;-7.83;100.00;103259.19;5029516;28;20041;-75
2023/02/08 00:34:46;;;;;;;51.83;26.27;;;;;;;-7.79;100.00;103252.72;5025034;28;20036;-76
2023/02/08 00:37:11;;;;;;;50.43;24.47;;;;;;;-7.80;100.00;103253.50;5024418;28;20069;-76
2023/02/08 00:39:37;;;;;;;51.37;23.83;;;;;;;-7.80;100.00;103256.06;5024572;28;20037;-76
2023/02/08 00:42:02;;;;;;;54.77;26.53;;;;;;;-7.81;100.00;103254.22;5022103;28;20038;-76
2023/02/08 00:44:27;;;;;;;49.33;23.83;;;;;;;-7.82;100.00;103250.75;5031576;28;20041;-76
2023/02/08 00:46:53;;;;;;;52.97;24.97;;;;;;;-7.78;100.00;103257.09;5024144;28;20087;-75
2023/02/08 00:49:19;;;;;;;54.37;26.07;;;;;;;-7.76;100.00;103253.06;5032612;28;20025;-76
2023/02/08 00:51:44;;;;;;;49.97;24.17;;;;;;;-7.75;100.00;103255.81;5024066;28;20068;-76
2023/02/08 00:54:13;;;;;;;54.47;28.50;;;;;;;-7.82;100.00;103249.84;5022616;28;20040;-76
2023/02/08 00:56:39;;;;;;;47.33;24.90;;;;;;;-7.94;100.00;103252.88;5022552;28;20385;-76
2023/02/08 00:59:04;;;;;;;52.17;26.57;;;;;;;-7.99;100.00;103254.00;5023175;28;20081;-76
2023/02/08 01:01:29;;;;;;;52.97;26.40;;;;;;;-7.94;100.00;103252.88;5024931;28;20087;-76
2023/02/08 01:03:55;;;;;;;45.10;23.83;;;;;;;-7.88;100.00;103242.38;5023614;28;20489;-76
2023/02/08 01:06:21;;;;;;;45.50;22.67;;;;;;;-7.87;100.00;103246.75;5023420;28;20529;-75
2023/02/08 01:08:46;;;;;;;53.20;22.90;;;;;;;-7.93;100.00;103249.56;5021980;28;20037;-75
2023/02/08 01:11:20;;;;;;;49.70;24.43;;;;;;;-7.93;100.00;103247.00;5022460;28;20037;-76
2023/02/08 01:13:46;;;;;;;49.73;25.90;;;;;;;-7.95;100.00;103245.91;5024693;28;20378;-76
2023/02/08 01:16:17;;;;;;;52.70;24.83;;;;;;;-7.94;100.00;103246.81;5020430;28;20048;-76
2023/02/08 01:18:46;;;;;;;54.15;26.60;;;;;;;-7.93;100.00;103241.88;5027928;28;20032;-76
2023/02/08 01:21:15;;;;;;;51.30;25.43;;;;;;;-8.00;100.00;103241.00;5023555;28;20112;-76
2023/02/08 01:23:41;;;;;;;56.57;27.00;;;;;;;-8.04;100.00;103247.44;5029856;28;20041;-76
2023/02/08 01:26:07;;;;;;;52.07;24.47;;;;;;;-8.04;100.00;103247.44;5020796;28;20037;-76
2023/02/08 01:28:33;;;;;;;50.17;24.63;;;;;;;-8.04;100.00;103244.88;5023000;28;20053;-76
2023/02/08 01:30:58;;;;;;;49.33;22.80;;;;;;;-8.01;100.00;103242.66;5024237;28;20496;-76
2023/02/08 01:33:24;;;;;;;50.27;24.03;;;;;;;-8.02;100.00;103235.69;5028749;28;20037;-76
2023/02/08 01:35:51;;;;;;;59.37;26.50;;;;;;;-8.02;100.00;103240.81;5021097;28;20488;-76
2023/02/08 01:38:17;;;;;;;52.67;23.87;;;;;;;-8.04;100.00;103242.31;5029790;28;20042;-76
2023/02/08 01:40:42;;;;;;;50.10;23.60;;;;;;;-8.01;100.00;103245.22;5037078;28;20033;-76
2023/02/08 01:43:28;;;;;;;61.27;26.83;;;;;;;-8.03;100.00;103236.44;5026894;28;20492;-76
2023/02/08 01:45:54;;;;;;;50.37;25.30;;;;;;;-8.07;100.00;103234.25;5022930;28;20554;-76
2023/02/08 01:48:28;;;;;;;46.10;22.67;;;;;;;-8.03;100.00;103239.00;5027371;28;20501;-76
2023/02/08 01:51:06;;;;;;;61.10;29.03;;;;;;;-8.10;100.00;103233.94;5020771;28;20052;-76
2023/02/08 01:53:34;;;;;;;55.73;26.30;;;;;;;-8.13;100.00;103233.59;5022314;28;20037;-76
2023/02/08 01:56:05;;;;;;;49.70;24.47;;;;;;;-8.11;100.00;103233.78;5026326;28;20125;-75
2023/02/08 01:58:35;;;;;;;55.17;26.57;;;;;;;-8.14;100.00;103228.31;5029601;28;20034;-76
2023/02/08 02:01:01;;;;;;;54.67;26.27;;;;;;;-8.13;100.00;103228.47;5019464;28;20038;-76
2023/02/08 02:03:27;;;;;;;47.73;24.57;;;;;;;-8.10;100.00;103228.81;5023795;28;20033;-76
2023/02/08 02:05:59;;;;;;;48.43;23.53;;;;;;;-8.07;100.00;103223.13;5022671;28;20412;-76
2023/02/08 02:08:25;;;;;;;49.20;24.30;;;;;;;-8.07;100.00;103223.13;5035684;28;20572;-76
2023/02/08 02:10:52;;;;;;;51.80;24.87;;;;;;;-8.07;100.00;103216.31;5022902;28;20428;-75
2023/02/08 02:13:23;;;;;;;54.33;25.90;;;;;;;-8.05;100.00;103221.63;5019507;28;20033;-75
2023/02/08 02:15:49;;;;;;;58.97;28.03;;;;;;;-8.05;100.00;103214.84;5027970;28;20040;-75
2023/02/08 02:18:27;;;;;;;54.17;25.97;;;;;;;-8.04;100.00;103214.13;5026730;28;20065;-75
2023/02/08 02:20:55;;;;;;;49.33;24.03;;;;;;;-8.07;100.00;103211.19;5019935;28;20080;-75
2023/02/08 02:24:01;;;;;;;55.73;25.37;;;;;;;-8.05;100.00;103209.72;5023447;28;20041;-75
2023/02/08 02:26:46;;;;;;;49.80;23.37;;;;;;;-8.09;100.00;103217.84;5020844;28;20092;-75
2023/02/08 02:29:30;;;;;;;49.20;24.20;;;;;;;-8.13;100.00;103212.19;5020019;28;20092;-75
2023/02/08 02:32:25;;;;;;;50.17;24.10;;;;;;;-8.14;100.00;103218.97;5027014;28;20033;-75
2023/02/08 02:35:02;;;;;;;51.00;26.33;;;;;;;-8.14;100.00;103221.53;5023418;28;20500;-75
2023/02/08 02:37:36;;;;;;;57.37;26.23;;;;;;;-8.11;100.00;103220.97;5020022;28;20037;-75
2023/02/08 02:40:29;;;;;;;54.17;27.17;;;;;;;-8.10;100.00;103218.56;5020987;28;20037;-75
2023/02/08 02:45:51;;;;;;;49.67;23.27;;;;;;;-8.11;100.00;103216.75;5026186;28;20473;-75
2023/02/08 02:48:27;;;;;;;45.03;21.73;;;;;;;-8.16;100.00;103217.88;5024119;28;20424;-75
2023/02/08 02:51:01;;;;;;;48.53;24.97;;;;;;;-8.21;100.00;103217.34;5019461;28;20045;-75
2023/02/08 02:53:49;;;;;;;50.53;23.47;;;;;;;-8.21;100.00;103208.75;5023300;28;20053;-75
2023/02/08 02:56:19;;;;;;;48.83;22.93;;;;;;;-8.23;100.00;103210.25;5019328;28;20124;-75
2023/02/08 02:58:45;;;;;;;52.10;25.30;;;;;;;-8.28;100.00;103216.50;5021817;28;20121;-76
2023/02/08 03:01:11;;;;;;;50.53;25.73;;;;;;;-8.30;100.00;103207.75;5020616;28;20140;-75
2023/02/08 03:03:36;;;;;;;49.37;22.77;;;;;;;-8.27;100.00;103218.34;5027509;28;20530;-76
2023/02/08 03:06:21;;;;;;;51.33;24.57;;;;;;;-8.29;100.00;103217.25;5022375;28;20457;-76
2023/02/08 03:09:06;;;;;;;47.70;24.13;;;;;;;-8.32;100.00;103215.25;5030491;23;20038;-71
2023/02/08 03:11:35;;;;;;;48.60;23.40;;;;;;;-8.32;100.00;103225.50;5003349;28;20571;-71
2023/02/08 03:14:09;;;;;;;50.73;23.70;;;;;;;-8.30;100.00;103218.00;5003442;28;20492;-71
2023/02/08 03:17:01;;;;;;;46.93;23.03;;;;;;;-8.26;100.00;103230.41;5002658;28;20033;-71
2023/02/08 03:19:35;;;;;;;49.10;24.20;;;;;;;-8.29;100.00;103230.06;5005381;28;20037;-71
2023/02/08 03:22:27;;;;;;;53.23;23.90;;;;;;;-8.32;100.00;103235.75;5007943;28;20033;-71
2023/02/08 03:25:00;;;;;;;43.00;20.85;;;;;;;-8.38;100.00;103233.41;5004541;28;20046;-71
2023/02/08 03:28:03;;;;;;;53.30;26.47;;;;;;;-8.40;100.00;103228.88;5006839;28;20034;-72
2023/02/08 03:31:08;;;;;;;52.28;26.17;;;;;;;-8.40;100.00;103236.56;5006312;28;20041;-71
2023/02/08 03:33:56;;;;;;;49.53;24.17;;;;;;;-8.46;100.00;103238.41;5002255;28;20221;-71
2023/02/08 03:36:44;;;;;;;53.57;25.07;;;;;;;-8.44;100.00;103245.53;5003405;28;20046;-71
2023/02/08 03:39:15;;;;;;;50.47;25.63;;;;;;;-8.41;100.00;103244.97;5003661;28;20074;-71
2023/02/08 03:41:45;;;;;;;46.13;22.37;;;;;;;-8.38;100.00;103235.97;5005560;28;20515;-71
2023/02/08 03:44:34;;;;;;;45.50;23.73;;;;;;;-8.32;100.00;103248.56;5004558;28;20034;-71
2023/02/08 03:47:16;;;;;;;47.70;24.47;;;;;;;-8.32;100.00;103245.09;5004510;28;20054;-71
2023/02/08 03:49:44;;;;;;;48.17;24.70;;;;;;;-8.35;100.00;103239.63;5007282;28;20042;-71
2023/02/08 03:52:10;;;;;;;56.33;25.37;;;;;;;-8.37;100.00;103248.03;5006584;28;20500;-71
2023/02/08 03:54:40;;;;;;;47.40;25.43;;;;;;;-8.35;100.00;103244.75;5006167;28;20049;-71
2023/02/08 03:57:13;;;;;;;53.27;26.63;;;;;;;-8.37;100.00;103240.34;5005848;28;20497;-71
2023/02/08 03:59:41;;;;;;;48.10;22.93;;;;;;;-8.38;100.00;103240.19;5004313;28;20034;-71
2023/02/08 04:02:11;;;;;;;45.97;23.10;;;;;;;-8.38;100.00;103242.75;5007938;28;20076;-71
2023/02/08 04:04:41;;;;;;;51.30;25.13;;;;;;;-8.39;100.00;103244.38;5006172;28;20034;-71
2023/02/08 04:07:07;;;;;;;49.47;24.30;;;;;;;-8.44;100.00;103249.75;5001904;28;20072;-71
2023/02/08 04:09:32;;;;;;;49.53;24.60;;;;;;;-8.45;100.00;103243.72;5006555;28;20034;-72
2023/02/08 04:11:58;;;;;;;51.43;24.67;;;;;;;-8.40;100.00;103247.72;5002686;28;20070;-71
2023/02/08 04:14:23;;;;;;;50.17;26.30;;;;;;;-8.34;100.00;103246.56;5009369;28;20041;-71
2023/02/08 04:16:49;;;;;;;49.10;25.40;;;;;;;-8.27;100.00;103244.88;5008130;28;20042;-71
2023/02/08 04:19:14;;;;;;;49.23;24.43;;;;;;;-8.23;100.00;103247.00;5008774;28;20037;-71
2023/02/08 04:21:39;;;;;;;58.47;24.73;;;;;;;-8.19;100.00;103248.28;5010775;28;20037;-71
2023/02/08 04:24:05;;;;;;;51.93;23.77;;;;;;;-8.18;100.00;103240.75;5003548;28;20045;-71
2023/02/08 04:26:30;;;;;;;51.03;26.17;;;;;;;-8.21;100.00;103244.63;5005326;28;20046;-71
2023/02/08 04:28:56;;;;;;;44.17;22.90;;;;;;;-8.19;100.00;103245.72;5005481;28;20061;-71
2023/02/08 04:31:21;;;;;;;45.53;22.47;;;;;;;-8.14;100.00;103247.16;5002413;28;20064;-71
2023/02/08 04:33:46;;;;;;;48.87;24.90;;;;;;;-8.10;100.00;103241.63;5005641;28;20073;-71
2023/02/08 04:36:12;;;;;;;51.50;25.03;;;;;;;-8.08;100.00;103242.72;5002310;28;20049;-71
2023/02/08 04:38:37;;;;;;;46.47;23.23;;;;;;;-8.09;100.00;103234.88;5005551;28;20042;-71
2023/02/08 04:41:03;;;;;;;54.43;26.87;;;;;;;-8.12;100.00;103248.25;5003998;28;20053;-71
2023/02/08 04:43:28;;;;;;;46.80;24.10;;;;;;;-8.16;100.00;103235.81;5011725;28;20045;-72
2023/02/08 04:45:53;;;;;;;45.70;23.10;;;;;;;-8.14;100.00;103233.44;5004400;28;20061;-71
2023/02/08 04:48:19;;;;;;;46.13;23.30;;;;;;;-8.16;100.00;103238.38;5010277;28;20042;-71
2023/02/08 04:50:45;;;;;;;47.43;21.63;;;;;;;-8.19;100.00;103232.91;5004393;28;20048;-71
2023/02/08 04:53:10;;;;;;;50.37;25.07;;;;;;;-8.23;100.00;103230.72;5008429;28;20164;-72
2023/02/08 04:55:35;;;;;;;57.03;25.37;;;;;;;-8.31;100.00;103231.53;5003555;28;20030;-72
2023/02/08 04:58:01;;;;;;;50.70;25.00;;;;;;;-8.40;100.00;103229.78;5003221;28;20050;-72
2023/02/08 05:00:26;;;;;;;57.43;28.20;;;;;;;-8.50;100.00;103228.56;5003565;28;20042;-72
2023/02/08 05:02:53;;;;;;;47.20;24.40;;;;;;;-8.49;100.00;103228.72;5006689;28;20030;-72
2023/02/08 05:05:19;;;;;;;46.63;22.57;;;;;;;-8.41;100.00;103227.97;5005050;28;20516;-72
2023/02/08 05:07:44;;;;;;;45.63;21.63;;;;;;;-8.34;100.00;103226.06;5005386;28;20037;-71
2023/02/08 05:10:10;;;;;;;47.57;22.13;;;;;;;-8.27;100.00;103228.59;5004945;28;20036;-72
2023/02/08 05:12:35;;;;;;;52.13;23.90;;;;;;;-8.21;100.00;103213.88;5005304;28;20639;-71
2023/02/08 05:15:00;;;;;;;50.07;22.93;;;;;;;-8.18;100.00;103219.34;5005233;28;20037;-72
2023/02/08 05:17:26;;;;;;;46.17;22.80;;;;;;;-8.16;100.00;103213.66;5003698;28;20045;-72
2023/02/08 05:19:51;;;;;;;42.43;21.23;;;;;;;-8.14;100.00;103218.97;5005186;28;20381;-72
2023/02/08 05:22:16;;;;;;;46.70;22.27;;;;;;;-8.18;100.00;103225.38;5006805;28;20033;-71
2023/02/08 05:24:41;;;;;;;45.47;21.47;;;;;;;-8.17;100.00;103216.06;5004687;28;20045;-72
2023/02/08 05:27:07;;;;;;;43.40;21.80;;;;;;;-8.12;100.00;103214.94;5008105;28;20065;-72
2023/02/08 05:29:32;;;;;;;48.03;22.43;;;;;;;-8.08;100.00;103214.50;5010713;28;20424;-72
2023/02/08 05:31:57;;;;;;;44.03;22.60;;;;;;;-8.03;100.00;103220.16;5005418;28;20420;-72
2023/02/08 05:34:23;;;;;;;46.17;21.93;;;;;;;-8.02;100.00;103212.63;5010939;28;20404;-71
2023/02/08 05:36:48;;;;;;;43.93;21.83;;;;;;;-8.01;100.00;103211.91;5010707;28;20064;-71
2023/02/08 05:39:13;;;;;;;41.87;21.30;;;;;;;-7.99;100.00;103215.56;5011148;28;20400;-71
2023/02/08 05:41:39;;;;;;;42.07;20.87;;;;;;;-7.97;100.00;103219.19;5010270;28;20390;-72
2023/02/08 05:44:04;;;;;;;39.40;19.37;;;;;;;-7.96;100.00;103213.34;5011177;28;20095;-72
2023/02/08 05:46:29;;;;;;;45.23;21.93;;;;;;;-7.93;100.00;103218.78;5007244;28;20577;-72
2023/02/08 05:48:55;;;;;;;41.30;20.67;;;;;;;-7.93;100.00;103217.88;5006941;28;20029;-72
2023/02/08 05:51:20;;;;;;;42.77;21.50;;;;;;;-7.93;100.00;103229.03;5007208;28;20029;-72
2023/02/08 05:53:45;;;;;;;45.23;20.73;;;;;;;-7.93;100.00;103226.47;5011015;28;20030;-72
2023/02/08 05:56:11;;;;;;;48.13;20.30;;;;;;;-7.91;100.00;103225.72;5005899;28;20504;-72
2023/02/08 05:58:36;;;;;;;44.83;22.27;;;;;;;-7.90;100.00;103232.69;5004043;28;20077;-72
2023/02/08 06:01:08;;;;;;;42.80;20.97;;;;;;;-7.89;100.00;103229.38;4997214;28;20061;-72
2023/02/08 06:03:33;;;;;;;68.17;31.10;;;;;;;-7.90;100.00;103220.78;5004531;28;20071;-72
2023/02/08 06:06:00;;;;;;;54.23;25.23;;;;;;;-7.88;100.00;103220.97;5007112;28;20328;-72
2023/02/08 06:08:25;;;;;;;47.27;23.00;;;;;;;-7.88;100.00;103226.09;5000191;28;20049;-72
2023/02/08 06:10:50;;;;;;;45.60;22.47;;;;;;;-7.89;100.00;103224.25;5004904;28;20033;-72
2023/02/08 06:13:16;;;;;;;51.47;22.43;;;;;;;-7.91;100.00;103225.72;5004492;28;20030;-72
2023/02/08 06:15:41;;;;;;;49.30;23.23;;;;;;;-7.90;100.00;103227.56;5006505;28;20052;-72
2023/02/08 06:18:08;;;;;;;43.33;20.47;;;;;;;-7.91;100.00;103230.84;5006455;28;20192;-72
2023/02/08 06:20:33;;;;;;;39.47;20.47;;;;;;;-7.91;100.00;103235.97;5002460;28;20045;-72
2023/02/08 06:22:58;;;;;;;45.97;21.73;;;;;;;-7.94;100.00;103232.38;5001568;28;20038;-72
2023/02/08 06:25:24;;;;;;;50.63;22.53;;;;;;;-7.94;100.00;103239.13;5005515;28;20037;-72
2023/02/08 06:27:49;;;;;;;45.50;21.00;;;;;;;-7.97;100.00;103242.25;5001527;28;20069;-72
2023/02/08 06:30:14;;;;;;;45.90;22.10;;;;;;;-7.95;100.00;103245.00;5002051;28;20029;-72
2023/02/08 06:32:40;;;;;;;44.57;21.57;;;;;;;-7.95;100.00;103245.91;5009174;28;20042;-72
2023/02/08 06:35:07;;;;;;;44.63;21.73;;;;;;;-7.97;100.00;103242.25;5009953;28;20045;-72
2023/02/08 06:37:32;;;;;;;49.93;23.37;;;;;;;-7.99;100.00;103250.50;5007193;28;20037;-72
2023/02/08 06:39:59;;;;;;;45.17;21.03;;;;;;;-7.99;100.00;103248.88;5000723;28;20049;-72
2023/02/08 06:42:25;;;;;;;46.77;22.63;;;;;;;-8.02;100.00;103253.63;5005952;28;20049;-72
2023/02/08 06:44:52;;;;;;;45.87;20.73;;;;;;;-7.98;100.00;103250.69;5002128;28;20050;-72
2023/02/08 06:47:17;;;;;;;50.23;22.77;;;;;;;-7.96;100.00;103246.66;5003087;28;20117;-72
2023/02/08 06:49:42;;;;;;;49.50;23.77;;;;;;;-7.99;100.00;103254.00;5009017;28;20116;-72
2023/02/08 06:52:08;;;;;;;53.70;23.90;;;;;;;-7.98;100.00;103253.25;5002991;28;20042;-72
2023/02/08 06:54:33;;;;;;;53.97;27.23;;;;;;;-7.95;100.00;103257.81;5002664;28;20044;-72
2023/02/08 06:56:58;;;;;;;43.90;22.53;;;;;;;-7.89;100.00;103249.88;5000019;28;20508;-72
2023/02/08 06:59:24;;;;;;;52.50;23.67;;;;;;;-7.85;100.00;103257.19;5005901;28;20030;-72
2023/02/08 07:01:50;;;;;;;45.53;21.30;;;;;;;-7.81;100.00;103255.13;5008693;28;20049;-72
2023/02/08 07:04:15;;;;;;;52.70;22.97;;;;;;;-7.76;100.00;103256.53;5006945;28;20447;-72
2023/02/08 07:06:40;;;;;;;45.50;21.80;;;;;;;-7.74;100.00;103261.84;4999397;28;20117;-72
2023/02/08 07:09:06;;;;;;;49.00;23.70;;;;;;;-7.73;100.00;103261.09;5002776;28;20034;-72
2023/02/08 07:11:31;;;;;;;50.57;23.93;;;;;;;-7.72;100.00;103260.38;5003100;28;20033;-72
2023/02/08 07:13:56;;;;;;;50.10;24.47;;;;;;;-7.65;100.00;103261.94;5003470;28;20038;-71
2023/02/08 07:16:22;;;;;;;50.50;24.33;;;;;;;-7.60;100.00;103260.81;4999161;28;20053;-72
2023/02/08 07:18:48;;;;;;;54.33;24.67;;;;;;;-7.53;100.00;103268.44;5002769;28;20042;-71
2023/02/08 07:21:14;;;;;;;49.93;22.77;;;;;;;-7.45;100.00;103251.34;5000743;28;20074;-72
2023/02/08 07:23:39;;;;;;;49.10;24.80;;;;;;;-7.37;100.00;103263.34;5002959;28;20081;-72
2023/02/08 07:26:10;;;;;;;51.43;24.93;;;;;;;-7.31;100.00;103267.50;5002620;28;20038;-72
2023/02/08 07:28:36;;;;;;;45.63;23.23;;;;;;;-7.26;100.00;103265.41;5000345;28;20398;-72
2023/02/08 07:31:13;;;;;;;47.60;23.50;;;;;;;-7.17;100.00;103262.97;5003412;28;20037;-72
2023/02/08 07:33:39;;;;;;;53.43;24.40;;;;;;;-7.12;100.00;103260.16;4999157;28;20038;-72
2023/02/08 07:36:06;;;;;;;52.03;24.10;;;;;;;-7.03;100.00;103260.22;4999368;28;20382;-72
2023/02/08 07:38:32;;;;;;;53.50;24.13;;;;;;;-6.94;100.00;103255.16;5017633;28;20488;-71
2023/02/08 07:41:06;;;;;;;50.67;23.47;;;;;;;-6.85;100.00;103251.94;5003027;28;20068;-72
2023/02/08 07:43:37;;;;;;;53.53;24.70;;;;;;;-6.76;100.00;103259.69;5000028;28;20100;-72
2023/02/08 07:46:30;;;;;;;50.90;23.87;;;;;;;-6.65;100.00;103258.31;4999303;28;20120;-72
2023/02/08 07:48:55;;;;;;;47.87;23.90;;;;;;;-6.57;100.00;103259.13;5002751;28;20060;-72
2023/02/08 07:51:20;;;;;;;50.27;23.07;;;;;;;-6.47;100.00;103264.47;5007195;28;20113;-72
2023/02/08 07:53:46;;;;;;;55.57;25.43;;;;;;;-6.36;100.00;103268.19;5001339;28;20046;-72
2023/02/08 07:56:11;;;;;;;46.77;23.83;;;;;;;-6.27;100.00;103271.72;5000416;28;20034;-72
2023/02/08 07:58:37;;;;;;;54.83;25.17;;;;;;;-6.15;100.00;103269.56;5002358;28;20034;-71
2023/02/08 08:01:02;;;;;;;57.63;26.57;;;;;;;-6.02;100.00;103264.94;5006671;28;20100;-72
2023/02/08 08:03:28;;;;;;;60.83;27.37;;;;;;;-5.96;100.00;103263.91;4998862;28;20038;-72
2023/02/08 08:05:53;;;;;;;52.87;26.13;;;;;;;-5.86;100.00;103259.69;5003025;28;20508;-72
2023/02/08 08:08:19;;;;;;;54.00;26.13;;;;;;;-5.74;100.00;103264.44;5004692;28;20046;-72
2023/02/08 08:10:45;;;;;;;59.17;26.90;;;;;;;-5.64;100.00;103268.84;5004025;28;20095;-72
2023/02/08 08:13:11;;;;;;;64.83;29.20;;;;;;;-5.56;100.00;103264.50;5006354;28;20129;-72
2023/02/08 08:15:36;;;;;;;60.53;28.87;;;;;;;-5.46;100.00;103259.53;5010396;28;20064;-72
2023/02/08 08:18:01;;;;;;;59.20;28.33;;;;;;;-5.37;100.00;103260.50;5010438;28;20046;-72
2023/02/08 08:20:27;;;;;;;53.90;26.70;;;;;;;-5.26;100.00;103266.72;5010124;28;20095;-72
2023/02/08 08:22:52;;;;;;;53.30;26.43;;;;;;;-5.13;100.00;103268.88;5006745;28;20489;-72
2023/02/08 08:25:17;;;;;;;52.73;26.23;;;;;;;-5.01;100.00;103258.88;5004612;28;20040;-72
2023/02/08 08:27:43;;;;;;;50.87;25.10;;;;;;;-4.93;100.00;103264.03;5011522;28;20033;-72
2023/02/08 08:30:12;;;;;;;47.70;24.50;;;;;;;-4.86;100.00;103271.63;5009806;28;20108;-72
2023/02/08 08:32:38;;;;;;;51.67;25.53;;;;;;;-4.75;100.00;103264.06;5009663;28;20034;-72
2023/02/08 08:35:04;;;;;;;56.77;30.40;;;;;;;-4.65;100.00;103264.22;5010689;28;20044;-72
2023/02/08 08:37:30;;;;;;;60.60;29.87;;;;;;;-4.59;100.00;103267.38;5005161;28;20052;-72
2023/02/08 08:39:55;;;;;;;51.37;25.77;;;;;;;-4.50;100.00;103267.41;5012917;28;20037;-72
2023/02/08 08:42:21;;;;;;;54.07;25.60;;;;;;;-4.41;100.00;103269.19;5006298;28;20049;-71
2023/02/08 08:44:46;;;;;;;50.10;24.43;;;;;;;-4.30;100.00;103264.19;5004992;28;20471;-72
2023/02/08 08:47:12;;;;;;;51.67;24.43;;;;;;;-4.21;100.00;103268.56;5007528;28;20095;-72
2023/02/08 08:49:37;;;;;;;47.30;25.03;;;;;;;-4.12;100.00;103263.38;5010436;28;20125;-72
2023/02/08 08:52:04;;;;;;;54.00;25.93;;;;;;;-4.02;100.00;103265.19;5007850;28;20058;-72
2023/02/08 08:54:30;;;;;;;54.07;27.10;;;;;;;-3.95;100.00;103272.78;5012112;28;20042;-72
2023/02/08 08:56:55;;;;;;;48.30;25.30;;;;;;;-3.86;100.00;103262.41;5006909;28;20033;-72
2023/02/08 08:59:21;;;;;;;52.90;25.70;;;;;;;-3.77;100.00;103269.38;5002430;28;20530;-72
2023/02/08 09:01:46;;;;;;;50.20;25.43;;;;;;;-3.68;100.00;103263.28;5001221;28;20038;-72
2023/02/08 09:04:12;;;;;;;51.67;26.97;;;;;;;-3.58;100.00;103255.63;5005225;28;20041;-73
2023/02/08 09:06:37;;;;;;;54.73;29.13;;;;;;;-3.49;100.00;103258.16;5009350;28;20061;-72
2023/02/08 09:09:03;;;;;;;55.47;28.43;;;;;;;-3.40;100.00;103257.38;5008637;28;20034;-72
2023/02/08 09:11:28;;;;;;;51.87;27.97;;;;;;;-3.31;100.00;103262.47;5003564;28;20061;-72
2023/02/08 09:13:55;;;;;;;54.13;27.53;;;;;;;-3.21;100.00;103257.41;5005142;28;20491;-74
2023/02/08 09:16:21;;;;;;;58.87;29.20;;;;;;;-3.12;100.00;103263.44;5001212;28;20046;-72
2023/02/08 09:18:46;;;;;;;60.13;29.40;;;;;;;-3.03;100.00;103260.78;5006264;28;20042;-72
2023/02/08 09:21:17;;;;;;;51.17;26.33;;;;;;;-2.95;100.00;103259.81;5031075;23;20060;-77
2023/02/08 09:23:42;;;;;;;60.87;29.80;;;;;;;-2.88;100.00;103269.97;5003760;28;20038;-77
2023/02/08 09:26:11;;;;;;;55.70;28.27;;;;;;;-2.76;100.00;103272.75;5001630;28;20042;-77
2023/02/08 09:28:37;;;;;;;58.27;28.10;;;;;;;-2.68;100.00;103271.78;4999192;28;20042;-77
2023/02/08 09:31:16;;;;;;;59.43;30.00;;;;;;;-2.58;100.00;103267.44;5001097;28;20030;-77
2023/02/08 09:33:42;;;;;;;56.07;28.43;;;;;;;-2.48;100.00;103268.41;5000135;28;20030;-77
2023/02/08 09:36:08;;;;;;;56.87;29.20;;;;;;;-2.39;100.00;103268.31;4999066;28;20099;-77
2023/02/08 09:38:33;;;;;;;55.43;29.57;;;;;;;-2.28;100.00;103274.47;5002526;28;20096;-77
2023/02/08 09:41:26;;;;;;;54.43;27.50;;;;;;;-2.19;100.00;103279.56;4999054;28;20686;-77
2023/02/08 09:44:19;;;;;;;56.23;30.40;;;;;;;-2.06;100.00;103285.97;5002107;28;20108;-77
2023/02/08 09:46:55;;;;;;;60.10;30.83;;;;;;;-1.91;100.00;103277.75;4999684;28;20053;-77
2023/02/08 09:49:25;;;;;;;60.60;29.83;;;;;;;-1.82;100.00;103268.22;5002764;28;20554;-76
2023/02/08 09:51:56;;;;;;;59.57;29.50;;;;;;;-1.73;100.00;103269.00;5000715;28;20049;-77
2023/02/08 09:54:29;;;;;;;54.97;29.60;;;;;;;-1.60;100.00;103265.78;4998478;28;20034;-77
2023/02/08 09:56:58;;;;;;;60.97;31.97;;;;;;;-1.50;100.00;103255.47;5001841;28;20037;-77
2023/02/08 09:59:27;;;;;;;55.53;30.03;;;;;;;-1.48;99.14;103259.09;4995798;28;20196;-76
2023/02/08 10:01:59;;;;;;;57.20;31.00;;;;;;;-1.35;99.27;103251.59;5000123;28;20057;-77
2023/02/08 10:04:33;;;;;;;55.65;29.45;;;;;;;-1.29;98.68;103252.91;4990256;28;20034;-76
2023/02/08 10:06:59;;;;;;;58.97;32.33;;;;;;;-1.18;98.22;103252.13;5001428;28;20030;-77
2023/02/08 10:09:26;;;;;;;53.30;27.13;;;;;;;-1.10;98.36;103256.31;4991631;28;20045;-77
2023/02/08 10:12:21;;;;;;;55.20;29.47;;;;;;;-0.99;96.97;103255.50;4994476;28;20476;-77
2023/02/08 10:15:28;;;;;;;52.63;28.13;;;;;;;-0.91;97.33;103254.47;4999201;28;20037;-77
2023/02/08 10:18:31;;;;;;;53.03;28.03;;;;;;;-0.80;95.77;103254.47;5000139;28;20065;-77
2023/02/08 10:21:09;;;;;;;52.13;27.83;;;;;;;-0.80;94.98;103245.00;4997582;28;20041;-77
2023/02/08 10:24:05;;;;;;;51.10;28.43;;;;;;;-0.79;93.47;103243.31;5000354;28;20061;-77
2023/02/08 10:26:44;;;;;;;47.90;27.23;;;;;;;-0.70;93.32;103246.69;5001535;28;20033;-77
2023/02/08 10:29:36;;;;;;;47.90;23.73;;;;;;;-0.60;93.56;103246.66;4998040;28;20037;-76
2023/02/08 10:32:22;;;;;;;45.27;25.63;;;;;;;-0.48;93.28;103252.84;4996757;28;20490;-76
2023/02/08 10:34:59;;;;;;;46.63;27.00;;;;;;;-0.37;92.64;103245.03;4996793;28;20125;-77
2023/02/08 10:37:33;;;;;;;42.80;23.70;;;;;;;-0.30;91.33;103242.16;4998038;28;20038;-77
2023/02/08 10:40:28;;;;;;;43.77;23.37;;;;;;;-0.22;92.00;103246.28;4999668;28;20030;-77
2023/02/08 10:43:16;;;;;;;41.73;22.70;;;;;;;-0.12;90.57;103248.84;5000760;28;20050;-77
2023/02/08 10:45:53;;;;;;;44.87;24.57;;;;;;;0.00;90.55;103241.16;4985874;28;20449;-77
2023/02/08 10:48:43;;;;;;;43.67;24.00;;;;;;;0.04;89.00;103239.69;4986311;28;20037;-77
2023/02/08 10:51:13;;;;;;;41.53;23.30;;;;;;;0.12;89.62;103243.81;4998261;28;20038;-76
2023/02/08 10:53:39;;;;;;;42.50;22.13;;;;;;;0.17;89.36;103247.66;4996056;28;20044;-77
2023/02/08 10:56:05;;;;;;;40.53;23.00;;;;;;;0.24;88.21;103247.38;4998710;28;20041;-77
2023/02/08 10:58:31;;;;;;;39.53;22.33;;;;;;;0.32;88.02;103232.41;4998427;28;20027;-77
2023/02/08 11:00:58;;;;;;;40.70;23.03;;;;;;;0.39;88.38;103227.81;5000082;28;20527;-77
2023/02/08 11:03:25;;;;;;;42.50;23.33;;;;;;;0.50;88.58;103228.66;4996978;28;20082;-77
2023/02/08 11:05:52;;;;;;;40.92;23.05;;;;;;;0.57;87.62;103224.81;5006381;28;20045;-78
2023/02/08 11:08:22;;;;;;;42.13;22.70;;;;;;;0.62;86.43;103226.06;5009101;28;20440;-78
2023/02/08 11:10:57;;;;;;;40.55;23.38;;;;;;;0.63;85.59;103210.63;5005247;28;20124;-78
2023/02/08 11:13:26;;;;;;;42.20;22.43;;;;;;;0.59;83.73;103223.25;5005117;28;20089;-78
2023/02/08 11:15:55;;;;;;;40.80;21.60;;;;;;;0.56;85.00;103210.91;5002478;28;20034;-78